createdAt,value
2019-05-17T00:00:37.128Z,24.80
2019-05-17T00:03:06.622Z,24.70
2019-05-17T00:05:33.919Z,24.80
2019-05-17T00:08:01.778Z,24.70
2019-05-17T00:10:29.595Z,24.70
2019-05-17T00:12:57.582Z,24.70
2019-05-17T00:15:27.366Z,24.70
2019-05-17T00:17:57.074Z,24.70
2019-05-17T00:20:26.645Z,24.70
2019-05-17T00:22:54.231Z,24.70
2019-05-17T00:25:22.141Z,24.70
2019-05-17T00:27:49.938Z,24.70
2019-05-17T00:30:17.881Z,24.70
2019-05-17T00:32:47.571Z,24.70
2019-05-17T00:35:17.695Z,24.70
2019-05-17T00:37:46.509Z,24.70
2019-05-17T00:40:16.645Z,24.70
2019-05-17T00:42:46.424Z,24.70
2019-05-17T00:45:14.078Z,24.70
2019-05-17T00:47:41.911Z,24.70
2019-05-17T00:50:09.817Z,24.70
2019-05-17T00:52:37.658Z,24.70
2019-05-17T00:55:06.771Z,24.70
2019-05-17T00:57:36.871Z,24.70
2019-05-17T01:00:05.600Z,24.70
2019-05-17T01:02:33.659Z,24.70
2019-05-17T01:05:01.444Z,24.70
2019-05-17T01:07:29.497Z,24.70
2019-05-17T01:09:57.463Z,24.70
2019-05-17T01:12:27.122Z,24.70
2019-05-17T01:14:54.927Z,24.70
2019-05-17T01:17:22.802Z,24.60
2019-05-17T01:19:50.759Z,24.70
2019-05-17T01:22:18.663Z,24.70
2019-05-17T01:24:46.606Z,24.60
2019-05-17T01:27:14.458Z,24.70
2019-05-17T01:29:42.350Z,24.70
2019-05-17T01:32:10.193Z,24.70
2019-05-17T01:34:38.176Z,24.70
2019-05-17T01:37:06.581Z,24.60
2019-05-17T01:39:34.579Z,24.70
2019-05-17T01:42:02.386Z,24.60
2019-05-17T01:44:30.346Z,24.70
2019-05-17T01:46:58.151Z,24.60
2019-05-17T01:49:27.131Z,24.60
2019-05-17T01:51:56.881Z,24.60
2019-05-17T01:54:26.764Z,24.60
2019-05-17T01:56:56.520Z,24.60
2019-05-17T01:59:23.666Z,24.60
2019-05-17T02:01:53.205Z,24.60
2019-05-17T02:04:21.084Z,24.60
2019-05-17T02:06:48.926Z,24.60
2019-05-17T02:09:33.494Z,24.60
2019-05-17T02:11:46.682Z,24.60
2019-05-17T02:14:16.541Z,24.60
2019-05-17T02:16:46.613Z,24.60
2019-05-17T02:19:13.790Z,24.60
2019-05-17T02:21:41.657Z,24.60
2019-05-17T02:24:09.630Z,24.60
2019-05-17T02:26:37.640Z,24.60
2019-05-17T02:29:05.442Z,24.60
2019-05-17T02:31:33.428Z,24.60
2019-05-17T02:34:03.093Z,24.60
2019-05-17T02:36:33.248Z,24.60
2019-05-17T02:39:03.402Z,24.60
2019-05-17T02:41:33.061Z,24.60
2019-05-17T02:44:02.159Z,24.60
2019-05-17T02:46:29.088Z,24.60
2019-05-17T02:48:56.998Z,24.60
2019-05-17T02:51:24.851Z,24.60
2019-05-17T02:53:52.860Z,24.60
2019-05-17T02:56:23.085Z,24.60
2019-05-17T02:58:53.017Z,24.60
2019-05-17T03:01:22.919Z,24.60
2019-05-17T03:03:52.618Z,24.60
2019-05-17T03:06:18.843Z,24.60
2019-05-17T03:08:46.997Z,24.60
2019-05-17T03:11:14.964Z,24.60
2019-05-17T03:13:43.562Z,24.60
2019-05-17T03:16:14.602Z,24.60
2019-05-17T03:18:43.873Z,24.60
2019-05-17T03:21:13.527Z,24.60
2019-05-17T03:23:43.283Z,24.60
2019-05-17T03:26:12.974Z,24.60
2019-05-17T03:28:42.458Z,24.60
2019-05-17T03:31:09.667Z,24.60
2019-05-17T03:33:38.347Z,24.60
2019-05-17T03:36:07.350Z,24.60
2019-05-17T03:38:35.719Z,24.60
2019-05-17T03:41:17.897Z,24.60
2019-05-17T03:43:35.229Z,24.60
2019-05-17T03:46:03.073Z,24.60
2019-05-17T03:48:33.338Z,24.60
2019-05-17T03:51:02.598Z,24.60
2019-05-17T03:53:33.111Z,24.60
2019-05-17T03:56:02.663Z,24.60
2019-05-17T03:58:33.030Z,24.60
2019-05-17T04:00:58.908Z,24.60
2019-05-17T04:03:30.796Z,24.60
2019-05-17T04:05:56.381Z,24.60
2019-05-17T04:08:24.345Z,24.60
2019-05-17T04:10:53.039Z,24.60
2019-05-17T04:13:23.384Z,24.70
2019-05-17T04:15:53.037Z,24.70
2019-05-17T04:18:23.211Z,24.70
2019-05-17T04:20:52.655Z,24.70
2019-05-17T04:23:22.988Z,24.70
2019-05-17T04:25:49.140Z,24.70
2019-05-17T04:28:17.211Z,24.60
2019-05-17T04:30:45.011Z,24.60
2019-05-17T04:33:13.064Z,24.70
2019-05-17T04:35:43.225Z,24.70
2019-05-17T04:38:12.780Z,24.60
2019-05-17T04:40:42.941Z,24.70
2019-05-17T04:43:09.746Z,24.70
2019-05-17T04:45:37.743Z,24.70
2019-05-17T04:48:05.582Z,24.70
2019-05-17T04:50:33.923Z,24.70
2019-05-17T04:53:02.574Z,24.70
2019-05-17T04:55:34.067Z,24.70
2019-05-17T04:58:03.478Z,24.70
2019-05-17T05:00:29.759Z,24.70
2019-05-17T05:02:57.605Z,24.70
2019-05-17T05:05:25.409Z,24.70
2019-05-17T05:07:53.729Z,24.70
2019-05-17T05:10:22.562Z,24.70
2019-05-17T05:12:52.439Z,24.70
2019-05-17T05:15:22.548Z,24.70
2019-05-17T05:17:52.635Z,24.70
2019-05-17T05:20:22.110Z,24.70
2019-05-17T05:22:49.235Z,24.70
2019-05-17T05:25:16.960Z,24.70
2019-05-17T05:27:44.810Z,24.70
2019-05-17T05:30:12.770Z,24.60
2019-05-17T05:32:42.551Z,24.70
2019-05-17T05:35:12.442Z,24.60
2019-05-17T05:37:42.171Z,24.70
2019-05-17T05:40:09.503Z,24.70
2019-05-17T05:42:37.477Z,24.70
2019-05-17T05:45:05.289Z,24.70
2019-05-17T05:47:33.202Z,24.70
2019-05-17T05:50:01.647Z,24.70
2019-05-17T05:52:32.251Z,24.70
2019-05-17T05:55:01.380Z,24.70
2019-05-17T05:57:28.977Z,24.70
2019-05-17T05:59:57.049Z,24.70
2019-05-17T06:02:24.904Z,24.70
2019-05-17T06:04:53.063Z,24.70
2019-05-17T06:07:21.618Z,24.70
2019-05-17T06:09:51.798Z,24.70
2019-05-17T06:12:26.954Z,24.70
2019-05-17T06:14:48.684Z,24.70
2019-05-17T06:17:16.588Z,24.70
2019-05-17T06:19:44.507Z,24.70
2019-05-17T06:22:12.343Z,24.70
2019-05-17T06:24:42.351Z,24.70
2019-05-17T06:27:12.196Z,24.70
2019-05-17T06:29:41.376Z,24.70
2019-05-17T06:32:09.041Z,24.70
2019-05-17T06:34:38.134Z,24.70
2019-05-17T06:37:05.906Z,24.70
2019-05-17T06:39:33.711Z,24.70
2019-05-17T06:42:02.749Z,24.70
2019-05-17T06:44:32.479Z,24.70
2019-05-17T06:47:02.604Z,24.60
2019-05-17T06:49:31.826Z,24.50
2019-05-17T06:52:02.232Z,24.50
2019-05-17T06:54:29.675Z,24.50
2019-05-17T06:56:57.638Z,24.50
2019-05-17T06:59:25.591Z,24.50
2019-05-17T07:01:53.726Z,24.40
2019-05-17T07:04:21.634Z,24.40
2019-05-17T07:06:51.135Z,24.40
2019-05-17T07:09:19.539Z,24.40
2019-05-17T07:11:47.715Z,24.40
2019-05-17T07:14:15.646Z,24.40
2019-05-17T07:16:43.774Z,24.30
2019-05-17T07:19:11.798Z,24.30
2019-05-17T07:21:40.446Z,24.40
2019-05-17T07:24:10.052Z,24.40
2019-05-17T07:26:39.378Z,24.40
2019-05-17T07:29:09.873Z,24.40
2019-05-17T07:31:37.087Z,24.40
2019-05-17T07:34:05.142Z,24.40
2019-05-17T07:36:33.110Z,24.40
2019-05-17T07:39:01.191Z,24.40
2019-05-17T07:41:29.840Z,24.40
2019-05-17T07:43:57.846Z,24.40
2019-05-17T07:46:26.309Z,24.40
2019-05-17T07:48:54.192Z,24.50
2019-05-17T07:51:22.095Z,24.50
2019-05-17T07:53:49.919Z,24.50
2019-05-17T07:56:20.037Z,24.50
2019-05-17T07:58:49.464Z,24.50
2019-05-17T08:01:17.614Z,24.50
2019-05-17T08:03:45.525Z,24.50
2019-05-17T08:06:13.457Z,24.50
2019-05-17T08:08:41.367Z,24.50
2019-05-17T08:11:10.575Z,24.50
2019-05-17T08:13:39.871Z,24.50
2019-05-17T08:16:10.123Z,24.50
2019-05-17T08:18:37.451Z,24.50
2019-05-17T08:21:05.278Z,24.50
2019-05-17T08:23:33.240Z,24.50
2019-05-17T08:26:01.187Z,24.50
2019-05-17T08:28:31.241Z,24.50
2019-05-17T08:31:01.121Z,24.50
2019-05-17T08:33:29.887Z,24.50
2019-05-17T08:35:59.771Z,24.50
2019-05-17T08:38:30.578Z,24.50
2019-05-17T08:41:00.685Z,24.50
2019-05-17T08:43:39.747Z,24.50
2019-05-17T08:45:59.311Z,24.50
2019-05-17T08:48:29.351Z,24.50
2019-05-17T08:50:57.123Z,24.60
2019-05-17T08:53:24.920Z,24.60
2019-05-17T08:55:53.006Z,24.60
2019-05-17T08:58:21.526Z,24.60
2019-05-17T09:00:50.521Z,24.60
2019-05-17T09:03:19.587Z,24.60
2019-05-17T09:05:52.109Z,24.60
2019-05-17T09:08:17.359Z,24.60
2019-05-17T09:10:45.321Z,24.60
2019-05-17T09:13:14.774Z,24.60
2019-05-17T09:15:42.801Z,24.60
2019-05-17T09:18:10.865Z,24.60
2019-05-17T09:20:40.487Z,24.60
2019-05-17T09:23:09.712Z,24.60
2019-05-17T09:25:39.718Z,24.60
2019-05-17T09:28:09.891Z,24.70
2019-05-17T09:30:37.166Z,24.70
2019-05-17T09:33:05.199Z,24.70
2019-05-17T09:35:33.131Z,24.70
2019-05-17T09:38:01.493Z,24.70
2019-05-17T09:40:29.450Z,24.70
2019-05-17T09:42:57.331Z,24.70
2019-05-17T09:45:25.288Z,24.70
2019-05-17T09:47:53.240Z,24.70
2019-05-17T09:50:21.525Z,24.70
2019-05-17T09:52:49.666Z,24.80
2019-05-17T09:55:19.418Z,24.70
2019-05-17T09:57:49.472Z,24.70
2019-05-17T10:00:16.784Z,24.70
2019-05-17T10:02:44.746Z,24.70
2019-05-17T10:05:12.821Z,24.70
2019-05-17T10:07:40.707Z,24.70
2019-05-17T10:10:10.397Z,24.70
2019-05-17T10:12:40.344Z,24.80
2019-05-17T10:15:09.816Z,24.80
2019-05-17T10:17:37.374Z,24.70
2019-05-17T10:20:06.063Z,24.70
2019-05-17T10:22:34.028Z,24.70
2019-05-17T10:25:01.988Z,24.70
2019-05-17T10:27:49.792Z,24.70
2019-05-17T10:30:18.009Z,24.70
2019-05-17T10:32:46.186Z,24.70
2019-05-17T10:35:14.352Z,24.70
2019-05-17T10:37:42.205Z,24.80
2019-05-17T10:40:10.696Z,24.80
2019-05-17T10:42:39.561Z,24.80
2019-05-17T10:45:10.562Z,24.80
2019-05-17T10:47:39.631Z,24.70
2019-05-17T10:50:07.280Z,24.70
2019-05-17T10:52:35.362Z,24.70
2019-05-17T10:55:03.759Z,24.80
2019-05-17T10:57:31.803Z,24.80
2019-05-17T10:59:59.612Z,24.80
2019-05-17T11:02:30.185Z,24.80
2019-05-17T11:05:00.773Z,24.80
2019-05-17T11:07:28.578Z,24.80
2019-05-17T11:09:56.547Z,24.80
2019-05-17T11:12:24.518Z,24.80
2019-05-17T11:15:09.687Z,24.80
2019-05-17T11:17:23.286Z,24.80
2019-05-17T11:19:51.186Z,24.80
2019-05-17T11:22:19.274Z,24.80
2019-05-17T11:24:47.063Z,24.90
2019-05-17T11:27:15.209Z,24.90
2019-05-17T11:29:43.171Z,24.90
2019-05-17T11:32:11.082Z,24.90
2019-05-17T11:34:39.073Z,24.90
2019-05-17T11:37:07.190Z,24.90
2019-05-17T11:39:35.283Z,24.90
2019-05-17T11:42:03.223Z,24.80
2019-05-17T11:44:31.302Z,24.80
2019-05-17T11:46:59.190Z,24.90
2019-05-17T11:49:27.440Z,24.80
2019-05-17T11:51:55.353Z,24.80
2019-05-17T11:54:23.417Z,24.80
2019-05-17T11:56:51.340Z,24.80
2019-05-17T11:59:19.347Z,24.80
2019-05-17T12:01:48.502Z,24.80
2019-05-17T12:04:16.498Z,24.80
2019-05-17T12:06:44.443Z,24.70
2019-05-17T12:09:12.419Z,24.70
2019-05-17T12:11:40.376Z,24.80
2019-05-17T12:14:08.257Z,24.70
2019-05-17T12:16:36.221Z,24.80
2019-05-17T12:19:04.124Z,24.80
2019-05-17T12:21:32.041Z,24.80
2019-05-17T12:23:59.926Z,24.80
2019-05-17T12:26:27.746Z,24.80
2019-05-17T12:28:55.758Z,24.80
2019-05-17T12:31:23.821Z,24.80
2019-05-17T12:33:51.958Z,24.80
2019-05-17T12:36:19.876Z,24.80
2019-05-17T12:38:47.897Z,24.80
2019-05-17T12:41:15.827Z,24.80
2019-05-17T12:43:43.775Z,24.80
2019-05-17T12:46:11.675Z,24.70
2019-05-17T12:48:39.609Z,24.80
2019-05-17T12:51:07.571Z,24.80
2019-05-17T12:53:35.756Z,24.70
2019-05-17T12:56:03.822Z,24.70
2019-05-17T12:58:31.782Z,24.80
2019-05-17T13:00:59.662Z,24.80
2019-05-17T13:03:27.515Z,24.80
2019-05-17T13:05:55.496Z,24.80
2019-05-17T13:08:23.675Z,24.80
2019-05-17T13:10:51.622Z,24.80
2019-05-17T13:13:19.543Z,24.80
2019-05-17T13:15:47.418Z,24.80
2019-05-17T13:18:15.479Z,24.80
2019-05-17T13:20:43.438Z,24.80
2019-05-17T13:23:11.375Z,24.80
2019-05-17T13:25:39.455Z,24.80
2019-05-17T13:28:07.407Z,24.80
2019-05-17T13:30:35.596Z,24.80
2019-05-17T13:33:03.495Z,24.80
2019-05-17T13:35:31.452Z,24.90
2019-05-17T13:37:59.382Z,24.90
2019-05-17T13:40:27.549Z,24.90
2019-05-17T13:42:55.326Z,24.80
2019-05-17T13:45:23.295Z,24.80
2019-05-17T13:47:51.265Z,24.80
2019-05-17T13:50:19.347Z,24.80
2019-05-17T13:52:47.282Z,24.80
2019-05-17T13:55:15.267Z,24.80
2019-05-17T13:57:43.238Z,24.80
2019-05-17T14:00:11.306Z,24.80
2019-05-17T14:02:39.135Z,24.90
2019-05-17T14:05:07.246Z,24.90
2019-05-17T14:07:35.116Z,24.90
2019-05-17T14:10:03.604Z,24.90
2019-05-17T14:12:31.675Z,24.90
2019-05-17T14:14:59.737Z,24.90
2019-05-17T14:17:27.961Z,25.00
2019-05-17T14:19:55.892Z,24.90
2019-05-17T14:22:23.847Z,24.90
2019-05-17T14:24:51.647Z,25.00
2019-05-17T14:27:19.585Z,25.00
2019-05-17T14:29:47.663Z,25.00
2019-05-17T14:32:15.620Z,25.00
2019-05-17T14:34:43.488Z,25.00
2019-05-17T14:37:11.376Z,25.00
2019-05-17T14:39:39.948Z,25.00
2019-05-17T14:42:07.902Z,25.00
2019-05-17T14:44:35.783Z,25.00
2019-05-17T14:47:04.972Z,25.00
2019-05-17T14:49:32.887Z,25.00
2019-05-17T14:52:00.811Z,25.00
2019-05-17T14:54:28.758Z,25.00
2019-05-17T14:56:56.861Z,25.00
2019-05-17T14:59:24.875Z,25.00
2019-05-17T15:01:54.063Z,25.00
2019-05-17T15:04:22.199Z,25.00
2019-05-17T15:06:52.702Z,25.00
2019-05-17T15:09:20.813Z,25.00
2019-05-17T15:11:48.854Z,25.00
2019-05-17T15:14:16.933Z,25.00
2019-05-17T15:16:44.995Z,25.00
2019-05-17T15:19:12.985Z,25.00
2019-05-17T15:21:41.062Z,25.00
2019-05-17T15:24:08.983Z,25.00
2019-05-17T15:26:37.031Z,25.00
2019-05-17T15:29:05.119Z,25.00
2019-05-17T15:31:33.228Z,25.00
2019-05-17T15:34:01.352Z,25.00
2019-05-17T15:36:29.359Z,25.00
2019-05-17T15:38:57.442Z,24.90
2019-05-17T15:41:25.358Z,25.00
2019-05-17T15:43:53.377Z,25.00
2019-05-17T15:46:21.355Z,25.00
2019-05-17T15:48:49.110Z,25.00
2019-05-17T15:51:17.165Z,25.00
2019-05-17T15:53:45.138Z,25.00
2019-05-17T15:56:13.130Z,25.10
2019-05-17T15:58:40.917Z,25.10
2019-05-17T16:01:09.057Z,25.10
2019-05-17T16:03:37.028Z,25.10
2019-05-17T16:06:04.872Z,25.10
2019-05-17T16:08:32.816Z,25.10
2019-05-17T16:11:02.156Z,25.20
2019-05-17T16:13:30.100Z,25.20
2019-05-17T16:15:58.087Z,25.20
2019-05-17T16:18:26.375Z,25.20
2019-05-17T16:20:54.385Z,25.20
2019-05-17T16:23:22.399Z,25.20
2019-05-17T16:25:50.280Z,25.20
2019-05-17T16:28:18.358Z,25.20
2019-05-17T16:30:46.327Z,25.20
2019-05-17T16:33:14.298Z,25.20
2019-05-17T16:35:42.362Z,25.20
2019-05-17T16:38:10.339Z,25.20
2019-05-17T16:40:38.387Z,25.20
2019-05-17T16:43:17.568Z,25.20
2019-05-17T16:45:36.077Z,25.20
2019-05-17T16:48:04.039Z,25.20
2019-05-17T16:50:32.014Z,25.20
2019-05-17T16:53:05.934Z,25.20
2019-05-17T16:55:30.224Z,25.20
2019-05-17T16:57:58.074Z,25.20
2019-05-17T17:00:27.488Z,25.20
2019-05-17T17:02:55.638Z,25.20
2019-05-17T17:05:23.716Z,25.20
2019-05-17T17:07:51.699Z,25.20
2019-05-17T17:10:19.853Z,25.20
2019-05-17T17:12:47.833Z,25.20
2019-05-17T17:15:30.063Z,25.20
2019-05-17T17:17:58.113Z,25.20
2019-05-17T17:20:26.182Z,25.20
2019-05-17T17:22:54.138Z,25.20
2019-05-17T17:25:22.079Z,25.20
2019-05-17T17:27:49.972Z,25.20
2019-05-17T17:30:18.151Z,25.20
2019-05-17T17:32:46.226Z,25.30
2019-05-17T17:35:15.009Z,25.20
2019-05-17T17:37:42.997Z,25.20
2019-05-17T17:40:10.891Z,25.20
2019-05-17T17:42:38.919Z,25.30
2019-05-17T17:45:07.182Z,25.30
2019-05-17T17:47:35.137Z,25.20
2019-05-17T17:50:04.083Z,25.30
2019-05-17T17:52:34.599Z,25.20
2019-05-17T17:55:01.731Z,25.20
2019-05-17T17:57:29.593Z,25.30
2019-05-17T17:59:57.666Z,25.20
2019-05-17T18:02:25.586Z,25.20
2019-05-17T18:04:53.443Z,25.30
2019-05-17T18:07:21.383Z,25.30
2019-05-17T18:09:49.335Z,25.30
2019-05-17T18:12:17.304Z,25.20
2019-05-17T18:14:45.062Z,25.30
2019-05-17T18:17:13.043Z,25.30
2019-05-17T18:19:41.005Z,25.30
2019-05-17T18:22:08.963Z,25.30
2019-05-17T18:24:36.929Z,25.30
2019-05-17T18:27:04.773Z,25.20
2019-05-17T18:29:32.871Z,25.20
2019-05-17T18:32:00.877Z,25.20
2019-05-17T18:34:28.827Z,25.20
2019-05-17T18:36:58.311Z,25.20
2019-05-17T18:39:26.293Z,25.10
2019-05-17T18:41:54.877Z,25.00
2019-05-17T18:44:27.727Z,25.00
2019-05-17T18:46:52.555Z,25.00
2019-05-17T18:49:20.835Z,25.00
2019-05-17T18:51:50.130Z,25.00
2019-05-17T18:54:18.201Z,24.90
2019-05-17T18:56:46.065Z,24.90
2019-05-17T18:59:14.059Z,24.90
2019-05-17T19:01:41.996Z,25.00
2019-05-17T19:04:09.976Z,24.90
2019-05-17T19:06:38.038Z,24.90
2019-05-17T19:09:06.784Z,24.90
2019-05-17T19:11:34.617Z,24.90
2019-05-17T19:14:02.477Z,24.90
2019-05-17T19:16:30.338Z,24.90
2019-05-17T19:18:59.405Z,24.90
2019-05-17T19:21:27.594Z,25.00
2019-05-17T19:23:55.426Z,24.90
2019-05-17T19:26:23.431Z,24.90
2019-05-17T19:28:51.503Z,24.90
2019-05-17T19:31:19.330Z,24.90
2019-05-17T19:33:47.355Z,24.90
2019-05-17T19:36:15.230Z,24.90
2019-05-17T19:38:43.280Z,24.90
2019-05-17T19:41:11.247Z,24.90
2019-05-17T19:43:39.193Z,24.90
2019-05-17T19:46:07.076Z,24.90
2019-05-17T19:48:35.152Z,24.90
2019-05-17T19:51:03.114Z,24.90
2019-05-17T19:53:31.010Z,24.80
2019-05-17T19:55:58.942Z,24.90
2019-05-17T19:58:26.772Z,24.90
2019-05-17T20:00:54.791Z,24.90
2019-05-17T20:03:22.628Z,24.90
2019-05-17T20:05:50.473Z,24.90
2019-05-17T20:08:18.293Z,25.00
2019-05-17T20:10:47.717Z,25.00
2019-05-17T20:13:15.577Z,25.00
2019-05-17T20:15:43.831Z,25.00
2019-05-17T20:18:11.760Z,25.00
2019-05-17T20:20:39.562Z,25.00
2019-05-17T20:23:07.211Z,25.00
2019-05-17T20:25:35.080Z,25.00
2019-05-17T20:28:02.929Z,25.00
2019-05-17T20:30:30.813Z,25.00
2019-05-17T20:32:58.591Z,25.00
2019-05-17T20:35:26.468Z,25.00
2019-05-17T20:37:54.209Z,25.00
2019-05-17T20:40:22.069Z,25.00
2019-05-17T20:42:49.832Z,25.00
2019-05-17T20:45:32.051Z,25.00
2019-05-17T20:47:47.315Z,25.00
2019-05-17T20:50:15.176Z,25.00
2019-05-17T20:52:43.006Z,25.00
2019-05-17T20:55:11.023Z,25.00
2019-05-17T20:57:38.832Z,24.90
2019-05-17T21:00:06.951Z,24.90
2019-05-17T21:02:34.686Z,24.90
2019-05-17T21:05:02.683Z,25.00
2019-05-17T21:07:30.661Z,25.00
2019-05-17T21:09:59.317Z,25.00
2019-05-17T21:12:27.419Z,25.00
2019-05-17T21:14:56.527Z,25.00
2019-05-17T21:17:24.785Z,25.00
2019-05-17T21:19:52.746Z,25.00
2019-05-17T21:22:20.614Z,25.00
2019-05-17T21:24:48.598Z,25.00
2019-05-17T21:27:16.551Z,25.00
2019-05-17T21:29:44.539Z,25.00
2019-05-17T21:32:12.362Z,25.00
2019-05-17T21:34:40.182Z,25.00
2019-05-17T21:37:08.184Z,25.00
2019-05-17T21:39:36.201Z,25.00
2019-05-17T21:42:04.159Z,25.00
2019-05-17T21:44:32.230Z,25.00
2019-05-17T21:47:04.612Z,25.00
2019-05-17T21:49:29.707Z,25.00
2019-05-17T21:51:57.896Z,24.90
2019-05-17T21:54:25.856Z,24.90
2019-05-17T21:56:53.931Z,24.90
2019-05-17T21:59:21.801Z,24.90
2019-05-17T22:01:49.969Z,24.90
2019-05-17T22:04:18.201Z,24.90
2019-05-17T22:06:46.258Z,24.90
2019-05-17T22:09:14.397Z,24.90
2019-05-17T22:11:44.716Z,24.90
2019-05-17T22:14:12.875Z,24.90
2019-05-17T22:16:40.846Z,24.90
2019-05-17T22:19:08.734Z,24.90
2019-05-17T22:21:36.457Z,24.90
2019-05-17T22:24:04.338Z,24.90
2019-05-17T22:26:32.270Z,24.90
2019-05-17T22:29:00.010Z,24.90
2019-05-17T22:31:28.037Z,24.90
2019-05-17T22:33:56.028Z,24.90
2019-05-17T22:36:23.977Z,24.90
2019-05-17T22:38:51.856Z,24.90
2019-05-17T22:41:19.652Z,24.90
2019-05-17T22:43:47.472Z,24.90
2019-05-17T22:46:15.405Z,24.90
2019-05-17T22:48:43.309Z,24.90
2019-05-17T22:51:11.059Z,24.90
2019-05-17T22:53:38.952Z,24.90
2019-05-17T22:56:06.900Z,24.90
2019-05-17T22:58:34.887Z,24.80
2019-05-17T23:01:02.642Z,24.90
2019-05-17T23:03:30.526Z,24.90
2019-05-17T23:05:58.477Z,24.80
2019-05-17T23:08:26.268Z,24.80
2019-05-17T23:10:54.231Z,24.80
2019-05-17T23:13:22.099Z,24.80
2019-05-17T23:16:03.059Z,24.80
2019-05-17T23:18:31.658Z,24.80
2019-05-17T23:20:59.621Z,24.80
2019-05-17T23:23:27.466Z,24.80
2019-05-17T23:25:55.445Z,24.80
2019-05-17T23:28:23.310Z,24.80
2019-05-17T23:30:51.382Z,24.80
2019-05-17T23:33:19.291Z,24.80
2019-05-17T23:35:47.206Z,24.80
2019-05-17T23:38:15.142Z,24.80
2019-05-17T23:40:43.146Z,24.80
2019-05-17T23:43:11.135Z,24.80
2019-05-17T23:45:39.186Z,24.80
2019-05-17T23:48:07.067Z,24.80
2019-05-17T23:50:35.022Z,24.80
2019-05-17T23:53:02.986Z,24.80
2019-05-17T23:55:30.811Z,24.80
2019-05-17T23:57:58.729Z,24.80
